sensor_id;sensor_type;location;lat;lon;timestamp;P1;durP1;ratioP1;P2;durP2;ratioP2
4122;SDS011;2075;51.062;6.920;2024-03-25T00:01:51;16.87;;;4.40;;
4122;SDS011;2075;51.062;6.920;2024-03-25T00:04:38;14.90;;;3.70;;
4122;SDS011;2075;51.062;6.920;2024-03-25T00:07:23;14.33;;;3.30;;
4122;SDS011;2075;51.062;6.920;2024-03-25T00:10:09;17.83;;;3.87;;
4122;SDS011;2075;51.062;6.920;2024-03-25T00:12:53;11.57;;;3.83;;
4122;SDS011;2075;51.062;6.920;2024-03-25T00:15:40;5.47;;;2.80;;
4122;SDS011;2075;51.062;6.920;2024-03-25T00:18:25;10.40;;;3.27;;
4122;SDS011;2075;51.062;6.920;2024-03-25T00:21:12;11.83;;;3.50;;
4122;SDS011;2075;51.062;6.920;2024-03-25T00:23:56;12.33;;;4.30;;
4122;SDS011;2075;51.062;6.920;2024-03-25T00:26:42;18.07;;;4.30;;
4122;SDS011;2075;51.062;6.920;2024-03-25T00:29:26;12.20;;;4.40;;
4122;SDS011;2075;51.062;6.920;2024-03-25T00:32:12;13.73;;;3.73;;
4122;SDS011;2075;51.062;6.920;2024-03-25T00:34:58;22.77;;;4.10;;
4122;SDS011;2075;51.062;6.920;2024-03-25T00:37:45;16.70;;;4.87;;
4122;SDS011;2075;51.062;6.920;2024-03-25T00:40:30;16.77;;;4.80;;
4122;SDS011;2075;51.062;6.920;2024-03-25T00:43:17;16.83;;;4.50;;
4122;SDS011;2075;51.062;6.920;2024-03-25T00:46:02;14.70;;;4.00;;
4122;SDS011;2075;51.062;6.920;2024-03-25T00:48:47;13.43;;;4.60;;
4122;SDS011;2075;51.062;6.920;2024-03-25T00:51:32;20.20;;;5.43;;
4122;SDS011;2075;51.062;6.920;2024-03-25T00:54:18;14.70;;;4.07;;
4122;SDS011;2075;51.062;6.920;2024-03-25T00:57:03;13.87;;;4.47;;
4122;SDS011;2075;51.062;6.920;2024-03-25T00:59:49;11.80;;;4.40;;
4122;SDS011;2075;51.062;6.920;2024-03-25T01:02:33;15.33;;;5.73;;
4122;SDS011;2075;51.062;6.920;2024-03-25T01:05:19;21.00;;;5.20;;
4122;SDS011;2075;51.062;6.920;2024-03-25T01:08:03;23.47;;;4.50;;
4122;SDS011;2075;51.062;6.920;2024-03-25T01:10:56;15.30;;;4.83;;
4122;SDS011;2075;51.062;6.920;2024-03-25T01:13:40;15.00;;;4.93;;
4122;SDS011;2075;51.062;6.920;2024-03-25T01:16:26;14.90;;;4.00;;
4122;SDS011;2075;51.062;6.920;2024-03-25T01:19:11;14.37;;;4.30;;
4122;SDS011;2075;51.062;6.920;2024-03-25T01:21:56;12.37;;;3.93;;
4122;SDS011;2075;51.062;6.920;2024-03-25T01:24:42;29.07;;;5.70;;
4122;SDS011;2075;51.062;6.920;2024-03-25T01:27:28;19.73;;;5.20;;
4122;SDS011;2075;51.062;6.920;2024-03-25T01:30:14;15.53;;;4.60;;
4122;SDS011;2075;51.062;6.920;2024-03-25T01:32:58;21.60;;;4.97;;
4122;SDS011;2075;51.062;6.920;2024-03-25T01:35:44;25.40;;;4.57;;
4122;SDS011;2075;51.062;6.920;2024-03-25T01:38:28;12.73;;;4.10;;
4122;SDS011;2075;51.062;6.920;2024-03-25T01:41:14;21.80;;;4.63;;
4122;SDS011;2075;51.062;6.920;2024-03-25T01:44:00;12.03;;;4.40;;
4122;SDS011;2075;51.062;6.920;2024-03-25T01:46:46;11.20;;;4.10;;
4122;SDS011;2075;51.062;6.920;2024-03-25T01:49:31;18.33;;;4.40;;
4122;SDS011;2075;51.062;6.920;2024-03-25T01:52:16;15.20;;;4.40;;
4122;SDS011;2075;51.062;6.920;2024-03-25T01:55:00;15.83;;;4.60;;
4122;SDS011;2075;51.062;6.920;2024-03-25T01:57:47;19.57;;;5.37;;
4122;SDS011;2075;51.062;6.920;2024-03-25T02:00:33;14.80;;;4.43;;
4122;SDS011;2075;51.062;6.920;2024-03-25T02:03:20;18.60;;;4.13;;
4122;SDS011;2075;51.062;6.920;2024-03-25T02:06:06;15.27;;;4.20;;
4122;SDS011;2075;51.062;6.920;2024-03-25T02:08:56;13.00;;;4.00;;
4122;SDS011;2075;51.062;6.920;2024-03-25T02:11:42;10.00;;;3.90;;
4122;SDS011;2075;51.062;6.920;2024-03-25T02:14:28;22.20;;;4.47;;
4122;SDS011;2075;51.062;6.920;2024-03-25T02:17:14;13.27;;;3.93;;
4122;SDS011;2075;51.062;6.920;2024-03-25T02:20:00;26.87;;;4.80;;
4122;SDS011;2075;51.062;6.920;2024-03-25T02:22:44;17.67;;;3.70;;
4122;SDS011;2075;51.062;6.920;2024-03-25T02:25:30;11.13;;;4.87;;
4122;SDS011;2075;51.062;6.920;2024-03-25T02:28:18;14.73;;;4.03;;
4122;SDS011;2075;51.062;6.920;2024-03-25T02:31:04;14.23;;;4.10;;
4122;SDS011;2075;51.062;6.920;2024-03-25T02:33:49;19.90;;;3.90;;
4122;SDS011;2075;51.062;6.920;2024-03-25T02:36:34;13.27;;;4.10;;
4122;SDS011;2075;51.062;6.920;2024-03-25T02:39:19;14.90;;;4.10;;
4122;SDS011;2075;51.062;6.920;2024-03-25T02:42:04;22.87;;;4.23;;
4122;SDS011;2075;51.062;6.920;2024-03-25T02:44:51;15.87;;;4.30;;
4122;SDS011;2075;51.062;6.920;2024-03-25T02:47:36;17.73;;;3.90;;
4122;SDS011;2075;51.062;6.920;2024-03-25T02:50:21;14.10;;;4.23;;
4122;SDS011;2075;51.062;6.920;2024-03-25T02:53:06;10.87;;;4.17;;
4122;SDS011;2075;51.062;6.920;2024-03-25T02:55:51;14.27;;;4.20;;
4122;SDS011;2075;51.062;6.920;2024-03-25T02:58:36;14.37;;;4.43;;
4122;SDS011;2075;51.062;6.920;2024-03-25T03:01:23;20.93;;;4.10;;
4122;SDS011;2075;51.062;6.920;2024-03-25T03:04:08;20.30;;;4.60;;
4122;SDS011;2075;51.062;6.920;2024-03-25T03:06:53;17.83;;;4.57;;
4122;SDS011;2075;51.062;6.920;2024-03-25T03:09:40;13.47;;;4.20;;
4122;SDS011;2075;51.062;6.920;2024-03-25T03:12:24;16.70;;;4.47;;
4122;SDS011;2075;51.062;6.920;2024-03-25T03:15:10;16.83;;;4.40;;
4122;SDS011;2075;51.062;6.920;2024-03-25T03:17:56;13.00;;;4.53;;
4122;SDS011;2075;51.062;6.920;2024-03-25T03:20:41;15.93;;;4.10;;
4122;SDS011;2075;51.062;6.920;2024-03-25T03:23:26;27.93;;;5.70;;
4122;SDS011;2075;51.062;6.920;2024-03-25T03:26:11;29.33;;;4.70;;
4122;SDS011;2075;51.062;6.920;2024-03-25T03:28:56;17.80;;;4.30;;
4122;SDS011;2075;51.062;6.920;2024-03-25T03:31:42;12.70;;;4.00;;
4122;SDS011;2075;51.062;6.920;2024-03-25T03:34:28;12.83;;;3.90;;
4122;SDS011;2075;51.062;6.920;2024-03-25T03:37:14;30.40;;;4.53;;
4122;SDS011;2075;51.062;6.920;2024-03-25T03:39:58;20.80;;;4.23;;
4122;SDS011;2075;51.062;6.920;2024-03-25T03:42:43;15.60;;;3.60;;
4122;SDS011;2075;51.062;6.920;2024-03-25T03:45:32;13.00;;;3.73;;
4122;SDS011;2075;51.062;6.920;2024-03-25T03:48:18;19.67;;;3.80;;
4122;SDS011;2075;51.062;6.920;2024-03-25T03:51:05;23.80;;;4.60;;
4122;SDS011;2075;51.062;6.920;2024-03-25T03:53:50;21.50;;;4.17;;
4122;SDS011;2075;51.062;6.920;2024-03-25T03:56:35;19.63;;;3.70;;
4122;SDS011;2075;51.062;6.920;2024-03-25T03:59:20;18.63;;;4.20;;
4122;SDS011;2075;51.062;6.920;2024-03-25T04:02:05;16.43;;;4.10;;
4122;SDS011;2075;51.062;6.920;2024-03-25T04:04:50;26.47;;;4.40;;
4122;SDS011;2075;51.062;6.920;2024-03-25T04:07:36;28.87;;;5.33;;
4122;SDS011;2075;51.062;6.920;2024-03-25T04:10:22;24.70;;;4.97;;
4122;SDS011;2075;51.062;6.920;2024-03-25T04:13:07;15.90;;;4.07;;
4122;SDS011;2075;51.062;6.920;2024-03-25T04:15:52;29.37;;;5.90;;
4122;SDS011;2075;51.062;6.920;2024-03-25T04:18:37;14.27;;;3.83;;
4122;SDS011;2075;51.062;6.920;2024-03-25T04:21:23;14.43;;;3.60;;
4122;SDS011;2075;51.062;6.920;2024-03-25T04:24:09;19.83;;;3.60;;
4122;SDS011;2075;51.062;6.920;2024-03-25T04:26:54;12.23;;;4.70;;
4122;SDS011;2075;51.062;6.920;2024-03-25T04:29:39;12.30;;;4.40;;
4122;SDS011;2075;51.062;6.920;2024-03-25T04:32:24;18.30;;;4.37;;
4122;SDS011;2075;51.062;6.920;2024-03-25T04:35:09;24.47;;;4.17;;
4122;SDS011;2075;51.062;6.920;2024-03-25T04:37:54;18.10;;;5.60;;
4122;SDS011;2075;51.062;6.920;2024-03-25T04:40:40;20.20;;;5.80;;
4122;SDS011;2075;51.062;6.920;2024-03-25T04:43:25;24.90;;;5.40;;
4122;SDS011;2075;51.062;6.920;2024-03-25T04:46:10;14.30;;;4.53;;
4122;SDS011;2075;51.062;6.920;2024-03-25T04:48:55;12.63;;;4.30;;
4122;SDS011;2075;51.062;6.920;2024-03-25T04:51:39;25.47;;;5.10;;
4122;SDS011;2075;51.062;6.920;2024-03-25T04:54:24;12.20;;;4.30;;
4122;SDS011;2075;51.062;6.920;2024-03-25T04:57:10;21.07;;;4.40;;
4122;SDS011;2075;51.062;6.920;2024-03-25T04:59:54;29.07;;;4.87;;
4122;SDS011;2075;51.062;6.920;2024-03-25T05:02:39;16.77;;;4.60;;
4122;SDS011;2075;51.062;6.920;2024-03-25T05:05:23;17.03;;;4.77;;
4122;SDS011;2075;51.062;6.920;2024-03-25T05:08:08;24.93;;;5.43;;
4122;SDS011;2075;51.062;6.920;2024-03-25T05:10:53;24.33;;;5.53;;
4122;SDS011;2075;51.062;6.920;2024-03-25T05:13:39;15.27;;;4.43;;
4122;SDS011;2075;51.062;6.920;2024-03-25T05:16:23;12.60;;;5.23;;
4122;SDS011;2075;51.062;6.920;2024-03-25T05:19:07;18.77;;;5.60;;
4122;SDS011;2075;51.062;6.920;2024-03-25T05:21:52;24.77;;;5.70;;
4122;SDS011;2075;51.062;6.920;2024-03-25T05:24:37;16.73;;;4.67;;
4122;SDS011;2075;51.062;6.920;2024-03-25T05:27:22;15.13;;;5.80;;
4122;SDS011;2075;51.062;6.920;2024-03-25T05:30:08;22.33;;;5.40;;
4122;SDS011;2075;51.062;6.920;2024-03-25T05:32:54;33.30;;;6.33;;
4122;SDS011;2075;51.062;6.920;2024-03-25T05:35:40;21.67;;;5.50;;
4122;SDS011;2075;51.062;6.920;2024-03-25T05:38:25;18.60;;;5.70;;
4122;SDS011;2075;51.062;6.920;2024-03-25T05:41:10;32.67;;;6.72;;
4122;SDS011;2075;51.062;6.920;2024-03-25T05:43:55;18.40;;;4.77;;
4122;SDS011;2075;51.062;6.920;2024-03-25T05:46:41;27.43;;;6.90;;
4122;SDS011;2075;51.062;6.920;2024-03-25T05:49:26;13.40;;;4.80;;
4122;SDS011;2075;51.062;6.920;2024-03-25T05:52:10;23.50;;;6.23;;
4122;SDS011;2075;51.062;6.920;2024-03-25T05:54:55;18.17;;;5.63;;
4122;SDS011;2075;51.062;6.920;2024-03-25T05:57:39;17.00;;;6.63;;
4122;SDS011;2075;51.062;6.920;2024-03-25T06:00:24;20.47;;;5.00;;
4122;SDS011;2075;51.062;6.920;2024-03-25T06:03:12;31.83;;;5.43;;
4122;SDS011;2075;51.062;6.920;2024-03-25T06:05:58;17.73;;;5.20;;
4122;SDS011;2075;51.062;6.920;2024-03-25T06:08:42;14.20;;;5.60;;
4122;SDS011;2075;51.062;6.920;2024-03-25T06:11:27;27.37;;;5.47;;
4122;SDS011;2075;51.062;6.920;2024-03-25T06:14:11;23.93;;;5.10;;
4122;SDS011;2075;51.062;6.920;2024-03-25T06:16:56;12.93;;;4.40;;
4122;SDS011;2075;51.062;6.920;2024-03-25T06:19:43;12.90;;;3.80;;
4122;SDS011;2075;51.062;6.920;2024-03-25T06:22:27;9.80;;;3.60;;
4122;SDS011;2075;51.062;6.920;2024-03-25T06:25:13;18.10;;;3.83;;
4122;SDS011;2075;51.062;6.920;2024-03-25T06:28:00;15.07;;;4.20;;
4122;SDS011;2075;51.062;6.920;2024-03-25T06:30:44;14.97;;;4.63;;
4122;SDS011;2075;51.062;6.920;2024-03-25T06:33:48;17.20;;;5.03;;
4122;SDS011;2075;51.062;6.920;2024-03-25T06:36:52;11.47;;;4.30;;
4122;SDS011;2075;51.062;6.920;2024-03-25T06:39:37;9.30;;;4.27;;
4122;SDS011;2075;51.062;6.920;2024-03-25T06:42:25;13.57;;;4.80;;
4122;SDS011;2075;51.062;6.920;2024-03-25T06:45:14;18.70;;;5.53;;
4122;SDS011;2075;51.062;6.920;2024-03-25T06:48:00;13.30;;;4.53;;
4122;SDS011;2075;51.062;6.920;2024-03-25T06:51:06;15.67;;;4.70;;
4122;SDS011;2075;51.062;6.920;2024-03-25T06:53:54;17.52;;;4.90;;
4122;SDS011;2075;51.062;6.920;2024-03-25T06:56:39;30.73;;;5.60;;
4122;SDS011;2075;51.062;6.920;2024-03-25T06:59:31;14.47;;;4.60;;
4122;SDS011;2075;51.062;6.920;2024-03-25T07:02:15;12.53;;;4.33;;
4122;SDS011;2075;51.062;6.920;2024-03-25T07:05:09;15.30;;;4.90;;
4122;SDS011;2075;51.062;6.920;2024-03-25T07:11:14;13.73;;;4.88;;
4122;SDS011;2075;51.062;6.920;2024-03-25T07:13:59;10.50;;;4.30;;
4122;SDS011;2075;51.062;6.920;2024-03-25T07:16:44;13.05;;;5.05;;
4122;SDS011;2075;51.062;6.920;2024-03-25T07:19:28;10.65;;;4.78;;
4122;SDS011;2075;51.062;6.920;2024-03-25T07:22:14;15.93;;;5.35;;
4122;SDS011;2075;51.062;6.920;2024-03-25T07:24:59;12.50;;;4.83;;
4122;SDS011;2075;51.062;6.920;2024-03-25T07:27:45;21.03;;;5.80;;
4122;SDS011;2075;51.062;6.920;2024-03-25T07:30:30;13.57;;;5.40;;
4122;SDS011;2075;51.062;6.920;2024-03-25T07:33:18;10.30;;;4.47;;
4122;SDS011;2075;51.062;6.920;2024-03-25T07:36:04;13.57;;;5.43;;
4122;SDS011;2075;51.062;6.920;2024-03-25T07:38:48;17.93;;;5.97;;
4122;SDS011;2075;51.062;6.920;2024-03-25T07:41:33;16.90;;;5.20;;
4122;SDS011;2075;51.062;6.920;2024-03-25T07:44:19;10.07;;;4.80;;
4122;SDS011;2075;51.062;6.920;2024-03-25T07:47:04;11.63;;;4.37;;
4122;SDS011;2075;51.062;6.920;2024-03-25T07:49:49;27.53;;;6.13;;
4122;SDS011;2075;51.062;6.920;2024-03-25T07:52:35;30.93;;;6.50;;
4122;SDS011;2075;51.062;6.920;2024-03-25T07:55:20;12.68;;;5.40;;
4122;SDS011;2075;51.062;6.920;2024-03-25T07:58:05;7.67;;;4.67;;
4122;SDS011;2075;51.062;6.920;2024-03-25T08:00:52;19.03;;;4.67;;
4122;SDS011;2075;51.062;6.920;2024-03-25T08:03:36;11.90;;;4.87;;
4122;SDS011;2075;51.062;6.920;2024-03-25T08:06:21;12.23;;;4.50;;
4122;SDS011;2075;51.062;6.920;2024-03-25T08:09:06;11.50;;;4.87;;
4122;SDS011;2075;51.062;6.920;2024-03-25T08:11:53;11.63;;;4.10;;
4122;SDS011;2075;51.062;6.920;2024-03-25T08:14:38;14.60;;;4.60;;
4122;SDS011;2075;51.062;6.920;2024-03-25T08:17:25;10.82;;;4.75;;
4122;SDS011;2075;51.062;6.920;2024-03-25T08:20:10;15.73;;;4.47;;
4122;SDS011;2075;51.062;6.920;2024-03-25T08:22:56;10.43;;;4.00;;
4122;SDS011;2075;51.062;6.920;2024-03-25T08:25:40;22.60;;;4.97;;
4122;SDS011;2075;51.062;6.920;2024-03-25T08:28:26;13.13;;;4.40;;
4122;SDS011;2075;51.062;6.920;2024-03-25T08:31:10;12.67;;;4.37;;
4122;SDS011;2075;51.062;6.920;2024-03-25T08:33:58;23.33;;;5.20;;
4122;SDS011;2075;51.062;6.920;2024-03-25T08:36:43;14.73;;;3.80;;
4122;SDS011;2075;51.062;6.920;2024-03-25T08:39:27;14.87;;;4.30;;
4122;SDS011;2075;51.062;6.920;2024-03-25T08:42:12;20.37;;;6.10;;
4122;SDS011;2075;51.062;6.920;2024-03-25T08:44:56;20.30;;;5.33;;
4122;SDS011;2075;51.062;6.920;2024-03-25T08:47:42;32.53;;;9.63;;
4122;SDS011;2075;51.062;6.920;2024-03-25T08:50:28;10.90;;;4.27;;
4122;SDS011;2075;51.062;6.920;2024-03-25T08:53:13;13.83;;;3.83;;
4122;SDS011;2075;51.062;6.920;2024-03-25T08:55:58;12.47;;;4.00;;
4122;SDS011;2075;51.062;6.920;2024-03-25T08:58:42;13.05;;;4.75;;
4122;SDS011;2075;51.062;6.920;2024-03-25T09:01:28;16.63;;;3.80;;
4122;SDS011;2075;51.062;6.920;2024-03-25T09:04:13;14.40;;;3.63;;
4122;SDS011;2075;51.062;6.920;2024-03-25T09:06:59;17.20;;;3.57;;
4122;SDS011;2075;51.062;6.920;2024-03-25T09:09:44;17.33;;;4.00;;
4122;SDS011;2075;51.062;6.920;2024-03-25T09:12:48;11.87;;;3.47;;
4122;SDS011;2075;51.062;6.920;2024-03-25T09:15:33;8.30;;;2.87;;
4122;SDS011;2075;51.062;6.920;2024-03-25T09:18:19;9.10;;;3.43;;
4122;SDS011;2075;51.062;6.920;2024-03-25T09:21:04;8.40;;;3.23;;
4122;SDS011;2075;51.062;6.920;2024-03-25T09:23:50;12.40;;;3.17;;
4122;SDS011;2075;51.062;6.920;2024-03-25T09:26:37;9.63;;;2.63;;
4122;SDS011;2075;51.062;6.920;2024-03-25T09:29:21;8.27;;;2.90;;
4122;SDS011;2075;51.062;6.920;2024-03-25T09:32:06;9.25;;;2.97;;
4122;SDS011;2075;51.062;6.920;2024-03-25T09:34:51;9.03;;;2.40;;
4122;SDS011;2075;51.062;6.920;2024-03-25T09:37:37;6.43;;;2.10;;
4122;SDS011;2075;51.062;6.920;2024-03-25T09:40:24;7.38;;;2.55;;
4122;SDS011;2075;51.062;6.920;2024-03-25T09:43:12;13.00;;;2.43;;
4122;SDS011;2075;51.062;6.920;2024-03-25T09:46:00;2.60;;;2.33;;
4122;SDS011;2075;51.062;6.920;2024-03-25T09:48:46;16.07;;;3.57;;
4122;SDS011;2075;51.062;6.920;2024-03-25T09:51:31;13.07;;;3.43;;
4122;SDS011;2075;51.062;6.920;2024-03-25T09:54:16;15.30;;;3.60;;
4122;SDS011;2075;51.062;6.920;2024-03-25T09:57:05;10.80;;;4.30;;
4122;SDS011;2075;51.062;6.920;2024-03-25T09:59:51;11.30;;;4.40;;
4122;SDS011;2075;51.062;6.920;2024-03-25T10:02:37;13.10;;;3.87;;
4122;SDS011;2075;51.062;6.920;2024-03-25T10:05:24;18.35;;;5.10;;
4122;SDS011;2075;51.062;6.920;2024-03-25T10:08:08;12.20;;;4.40;;
4122;SDS011;2075;51.062;6.920;2024-03-25T10:10:54;15.50;;;4.37;;
4122;SDS011;2075;51.062;6.920;2024-03-25T10:13:42;13.63;;;4.10;;
4122;SDS011;2075;51.062;6.920;2024-03-25T10:16:28;13.40;;;3.90;;
4122;SDS011;2075;51.062;6.920;2024-03-25T10:19:15;11.00;;;3.67;;
4122;SDS011;2075;51.062;6.920;2024-03-25T10:22:03;11.13;;;4.17;;
4122;SDS011;2075;51.062;6.920;2024-03-25T10:24:48;61.87;;;9.77;;
4122;SDS011;2075;51.062;6.920;2024-03-25T10:27:33;13.10;;;3.37;;
4122;SDS011;2075;51.062;6.920;2024-03-25T10:30:21;9.63;;;4.30;;
4122;SDS011;2075;51.062;6.920;2024-03-25T10:33:07;7.90;;;4.17;;
4122;SDS011;2075;51.062;6.920;2024-03-25T10:35:52;14.87;;;3.37;;
4122;SDS011;2075;51.062;6.920;2024-03-25T10:38:37;11.43;;;3.90;;
4122;SDS011;2075;51.062;6.920;2024-03-25T10:41:23;13.93;;;3.30;;
4122;SDS011;2075;51.062;6.920;2024-03-25T10:44:08;13.70;;;3.53;;
4122;SDS011;2075;51.062;6.920;2024-03-25T10:46:58;6.40;;;3.10;;
4122;SDS011;2075;51.062;6.920;2024-03-25T10:49:48;8.77;;;3.00;;
4122;SDS011;2075;51.062;6.920;2024-03-25T10:52:36;15.20;;;3.90;;
4122;SDS011;2075;51.062;6.920;2024-03-25T10:55:22;8.13;;;3.20;;
4122;SDS011;2075;51.062;6.920;2024-03-25T10:58:07;4.53;;;2.83;;
4122;SDS011;2075;51.062;6.920;2024-03-25T11:00:53;6.30;;;3.40;;
4122;SDS011;2075;51.062;6.920;2024-03-25T11:03:41;9.93;;;4.10;;
4122;SDS011;2075;51.062;6.920;2024-03-25T11:06:26;11.70;;;3.83;;
4122;SDS011;2075;51.062;6.920;2024-03-25T11:09:11;7.07;;;3.60;;
4122;SDS011;2075;51.062;6.920;2024-03-25T11:12:09;11.93;;;3.77;;
4122;SDS011;2075;51.062;6.920;2024-03-25T11:14:56;5.90;;;3.60;;
4122;SDS011;2075;51.062;6.920;2024-03-25T11:17:47;13.80;;;4.17;;
4122;SDS011;2075;51.062;6.920;2024-03-25T11:20:34;12.73;;;4.03;;
4122;SDS011;2075;51.062;6.920;2024-03-25T11:23:19;9.27;;;3.00;;
4122;SDS011;2075;51.062;6.920;2024-03-25T11:26:03;5.27;;;3.10;;
4122;SDS011;2075;51.062;6.920;2024-03-25T11:28:48;10.90;;;3.37;;
4122;SDS011;2075;51.062;6.920;2024-03-25T11:31:33;10.93;;;5.20;;
4122;SDS011;2075;51.062;6.920;2024-03-25T11:34:22;6.03;;;2.80;;
4122;SDS011;2075;51.062;6.920;2024-03-25T11:37:09;7.80;;;2.93;;
4122;SDS011;2075;51.062;6.920;2024-03-25T11:40:00;9.93;;;3.60;;
4122;SDS011;2075;51.062;6.920;2024-03-25T11:42:46;7.67;;;2.90;;
4122;SDS011;2075;51.062;6.920;2024-03-25T11:45:32;8.25;;;3.10;;
4122;SDS011;2075;51.062;6.920;2024-03-25T11:48:17;8.90;;;3.90;;
4122;SDS011;2075;51.062;6.920;2024-03-25T11:51:03;7.70;;;3.20;;
4122;SDS011;2075;51.062;6.920;2024-03-25T11:53:50;10.07;;;3.10;;
4122;SDS011;2075;51.062;6.920;2024-03-25T11:56:34;14.97;;;3.47;;
4122;SDS011;2075;51.062;6.920;2024-03-25T11:59:19;9.73;;;3.20;;
4122;SDS011;2075;51.062;6.920;2024-03-25T12:02:05;12.70;;;4.40;;
4122;SDS011;2075;51.062;6.920;2024-03-25T12:04:51;6.90;;;2.93;;
4122;SDS011;2075;51.062;6.920;2024-03-25T12:07:36;6.37;;;3.20;;
4122;SDS011;2075;51.062;6.920;2024-03-25T12:10:22;5.77;;;2.40;;
4122;SDS011;2075;51.062;6.920;2024-03-25T12:13:26;12.43;;;2.87;;
4122;SDS011;2075;51.062;6.920;2024-03-25T12:16:11;15.03;;;3.80;;
4122;SDS011;2075;51.062;6.920;2024-03-25T12:18:56;11.53;;;3.67;;
4122;SDS011;2075;51.062;6.920;2024-03-25T12:21:41;16.40;;;3.20;;
4122;SDS011;2075;51.062;6.920;2024-03-25T12:24:27;8.67;;;3.13;;
4122;SDS011;2075;51.062;6.920;2024-03-25T12:27:14;12.63;;;3.97;;
4122;SDS011;2075;51.062;6.920;2024-03-25T12:29:59;5.67;;;3.20;;
4122;SDS011;2075;51.062;6.920;2024-03-25T12:32:46;5.00;;;2.20;;
4122;SDS011;2075;51.062;6.920;2024-03-25T12:35:31;6.73;;;2.97;;
4122;SDS011;2075;51.062;6.920;2024-03-25T12:38:23;5.93;;;2.60;;
4122;SDS011;2075;51.062;6.920;2024-03-25T12:41:09;7.33;;;2.80;;
4122;SDS011;2075;51.062;6.920;2024-03-25T12:43:56;4.97;;;2.50;;
4122;SDS011;2075;51.062;6.920;2024-03-25T12:46:41;16.13;;;2.80;;
4122;SDS011;2075;51.062;6.920;2024-03-25T12:49:26;6.53;;;2.60;;
4122;SDS011;2075;51.062;6.920;2024-03-25T12:52:12;6.27;;;2.47;;
4122;SDS011;2075;51.062;6.920;2024-03-25T12:54:57;9.33;;;3.37;;
4122;SDS011;2075;51.062;6.920;2024-03-25T12:57:42;11.90;;;3.17;;
4122;SDS011;2075;51.062;6.920;2024-03-25T13:00:28;7.87;;;2.87;;
4122;SDS011;2075;51.062;6.920;2024-03-25T13:03:14;11.27;;;3.00;;
4122;SDS011;2075;51.062;6.920;2024-03-25T13:05:59;9.57;;;2.93;;
4122;SDS011;2075;51.062;6.920;2024-03-25T13:08:45;10.40;;;3.10;;
4122;SDS011;2075;51.062;6.920;2024-03-25T13:11:29;11.00;;;2.87;;
4122;SDS011;2075;51.062;6.920;2024-03-25T13:14:17;7.27;;;2.80;;
4122;SDS011;2075;51.062;6.920;2024-03-25T13:17:03;9.13;;;2.63;;
4122;SDS011;2075;51.062;6.920;2024-03-25T13:19:48;6.67;;;2.87;;
4122;SDS011;2075;51.062;6.920;2024-03-25T13:22:33;4.90;;;2.80;;
4122;SDS011;2075;51.062;6.920;2024-03-25T13:25:18;2.03;;;1.90;;
4122;SDS011;2075;51.062;6.920;2024-03-25T13:28:03;4.77;;;2.37;;
4122;SDS011;2075;51.062;6.920;2024-03-25T13:30:49;5.60;;;2.50;;
4122;SDS011;2075;51.062;6.920;2024-03-25T13:33:35;7.10;;;3.13;;
4122;SDS011;2075;51.062;6.920;2024-03-25T13:36:20;8.73;;;2.50;;
4122;SDS011;2075;51.062;6.920;2024-03-25T13:39:07;2.97;;;2.50;;
4122;SDS011;2075;51.062;6.920;2024-03-25T13:41:53;3.97;;;2.97;;
4122;SDS011;2075;51.062;6.920;2024-03-25T13:44:38;13.23;;;2.90;;
4122;SDS011;2075;51.062;6.920;2024-03-25T13:47:24;7.15;;;3.10;;
4122;SDS011;2075;51.062;6.920;2024-03-25T13:50:11;8.03;;;2.87;;
4122;SDS011;2075;51.062;6.920;2024-03-25T13:52:55;7.57;;;3.40;;
4122;SDS011;2075;51.062;6.920;2024-03-25T13:55:42;10.60;;;2.93;;
4122;SDS011;2075;51.062;6.920;2024-03-25T13:58:26;10.20;;;2.80;;
4122;SDS011;2075;51.062;6.920;2024-03-25T14:01:11;8.17;;;3.27;;
4122;SDS011;2075;51.062;6.920;2024-03-25T14:03:57;12.83;;;3.20;;
4122;SDS011;2075;51.062;6.920;2024-03-25T14:06:43;10.03;;;3.00;;
4122;SDS011;2075;51.062;6.920;2024-03-25T14:09:29;6.23;;;2.43;;
4122;SDS011;2075;51.062;6.920;2024-03-25T14:12:14;5.50;;;2.70;;
4122;SDS011;2075;51.062;6.920;2024-03-25T14:14:59;3.17;;;2.50;;
4122;SDS011;2075;51.062;6.920;2024-03-25T14:17:44;5.23;;;2.77;;
4122;SDS011;2075;51.062;6.920;2024-03-25T14:20:30;2.90;;;2.47;;
4122;SDS011;2075;51.062;6.920;2024-03-25T14:23:17;7.60;;;2.67;;
4122;SDS011;2075;51.062;6.920;2024-03-25T14:26:02;7.97;;;2.43;;
4122;SDS011;2075;51.062;6.920;2024-03-25T14:28:47;8.57;;;2.87;;
4122;SDS011;2075;51.062;6.920;2024-03-25T14:31:32;4.27;;;2.43;;
4122;SDS011;2075;51.062;6.920;2024-03-25T14:34:17;3.83;;;1.97;;
4122;SDS011;2075;51.062;6.920;2024-03-25T14:37:03;4.87;;;2.50;;
4122;SDS011;2075;51.062;6.920;2024-03-25T14:39:49;4.30;;;1.93;;
4122;SDS011;2075;51.062;6.920;2024-03-25T14:42:34;4.70;;;2.67;;
4122;SDS011;2075;51.062;6.920;2024-03-25T14:45:19;2.17;;;1.97;;
4122;SDS011;2075;51.062;6.920;2024-03-25T14:48:05;2.90;;;2.40;;
4122;SDS011;2075;51.062;6.920;2024-03-25T14:50:51;5.80;;;2.57;;
4122;SDS011;2075;51.062;6.920;2024-03-25T14:53:36;2.33;;;2.13;;
4122;SDS011;2075;51.062;6.920;2024-03-25T14:56:22;6.40;;;2.40;;
4122;SDS011;2075;51.062;6.920;2024-03-25T14:59:07;4.83;;;2.10;;
4122;SDS011;2075;51.062;6.920;2024-03-25T15:01:52;8.00;;;2.43;;
4122;SDS011;2075;51.062;6.920;2024-03-25T15:04:37;3.50;;;2.10;;
4122;SDS011;2075;51.062;6.920;2024-03-25T15:07:22;5.00;;;2.93;;
4122;SDS011;2075;51.062;6.920;2024-03-25T15:10:08;6.17;;;3.10;;
4122;SDS011;2075;51.062;6.920;2024-03-25T15:12:55;4.93;;;2.17;;
4122;SDS011;2075;51.062;6.920;2024-03-25T15:15:41;3.23;;;2.00;;
4122;SDS011;2075;51.062;6.920;2024-03-25T15:18:28;9.80;;;2.27;;
4122;SDS011;2075;51.062;6.920;2024-03-25T15:21:13;2.53;;;1.80;;
4122;SDS011;2075;51.062;6.920;2024-03-25T15:23:58;3.53;;;2.00;;
4122;SDS011;2075;51.062;6.920;2024-03-25T15:26:43;2.17;;;2.07;;
4122;SDS011;2075;51.062;6.920;2024-03-25T15:29:30;3.40;;;1.90;;
4122;SDS011;2075;51.062;6.920;2024-03-25T15:32:15;4.10;;;1.67;;
4122;SDS011;2075;51.062;6.920;2024-03-25T15:35:00;3.40;;;1.70;;
4122;SDS011;2075;51.062;6.920;2024-03-25T15:37:44;3.80;;;3.23;;
4122;SDS011;2075;51.062;6.920;2024-03-25T15:40:30;2.60;;;1.57;;
4122;SDS011;2075;51.062;6.920;2024-03-25T15:43:15;5.30;;;1.83;;
4122;SDS011;2075;51.062;6.920;2024-03-25T15:46:01;3.10;;;2.33;;
4122;SDS011;2075;51.062;6.920;2024-03-25T15:48:47;3.40;;;2.43;;
4122;SDS011;2075;51.062;6.920;2024-03-25T15:51:32;3.57;;;1.90;;
4122;SDS011;2075;51.062;6.920;2024-03-25T15:54:17;3.40;;;2.40;;
4122;SDS011;2075;51.062;6.920;2024-03-25T15:57:01;7.17;;;1.60;;
4122;SDS011;2075;51.062;6.920;2024-03-25T15:59:46;3.43;;;1.60;;
4122;SDS011;2075;51.062;6.920;2024-03-25T16:02:34;2.40;;;1.60;;
4122;SDS011;2075;51.062;6.920;2024-03-25T16:05:19;11.13;;;1.60;;
4122;SDS011;2075;51.062;6.920;2024-03-25T16:08:05;1.87;;;1.73;;
4122;SDS011;2075;51.062;6.920;2024-03-25T16:10:50;1.73;;;1.60;;
4122;SDS011;2075;51.062;6.920;2024-03-25T16:13:36;3.63;;;1.60;;
4122;SDS011;2075;51.062;6.920;2024-03-25T16:16:21;1.40;;;1.30;;
4122;SDS011;2075;51.062;6.920;2024-03-25T16:19:09;4.37;;;1.93;;
4122;SDS011;2075;51.062;6.920;2024-03-25T16:21:55;3.97;;;2.00;;
4122;SDS011;2075;51.062;6.920;2024-03-25T16:24:40;3.23;;;1.60;;
4122;SDS011;2075;51.062;6.920;2024-03-25T16:27:25;2.10;;;1.60;;
4122;SDS011;2075;51.062;6.920;2024-03-25T16:30:10;2.67;;;2.13;;
4122;SDS011;2075;51.062;6.920;2024-03-25T16:32:55;1.60;;;1.50;;
4122;SDS011;2075;51.062;6.920;2024-03-25T16:35:42;2.80;;;1.60;;
4122;SDS011;2075;51.062;6.920;2024-03-25T16:38:27;3.20;;;1.80;;
4122;SDS011;2075;51.062;6.920;2024-03-25T16:41:12;5.18;;;2.20;;
4122;SDS011;2075;51.062;6.920;2024-03-25T16:43:57;5.90;;;2.20;;
4122;SDS011;2075;51.062;6.920;2024-03-25T16:46:42;5.35;;;1.75;;
4122;SDS011;2075;51.062;6.920;2024-03-25T16:49:27;6.00;;;2.57;;
4122;SDS011;2075;51.062;6.920;2024-03-25T16:52:13;6.07;;;2.40;;
4122;SDS011;2075;51.062;6.920;2024-03-25T16:54:58;2.07;;;1.70;;
4122;SDS011;2075;51.062;6.920;2024-03-25T16:57:42;5.37;;;1.90;;
4122;SDS011;2075;51.062;6.920;2024-03-25T17:00:27;3.80;;;1.90;;
4122;SDS011;2075;51.062;6.920;2024-03-25T17:03:12;5.67;;;1.57;;